createdAt,value
2023-01-29T00:00:13.720Z,0.00
2023-01-29T00:01:13.141Z,0.00
2023-01-29T00:02:13.277Z,0.00
2023-01-29T00:03:13.395Z,0.00
2023-01-29T00:04:13.348Z,0.00
2023-01-29T00:05:27.041Z,0.00
2023-01-29T00:06:13.825Z,0.00
2023-01-29T00:07:13.896Z,0.00
2023-01-29T00:08:12.844Z,0.00
2023-01-29T00:09:13.871Z,0.00
2023-01-29T00:10:13.983Z,0.00
2023-01-29T00:11:13.515Z,0.00
2023-01-29T00:12:13.395Z,0.00
2023-01-29T00:13:13.328Z,0.00
2023-01-29T00:14:13.350Z,0.00
2023-01-29T00:15:13.668Z,0.00
2023-01-29T00:16:13.612Z,0.00
2023-01-29T00:17:13.743Z,0.00
2023-01-29T00:18:13.851Z,0.00
2023-01-29T00:19:13.864Z,0.00
2023-01-29T00:20:14.198Z,0.00
2023-01-29T00:21:13.475Z,0.00
2023-01-29T00:22:13.338Z,0.00
2023-01-29T00:23:13.278Z,0.00
2023-01-29T00:24:13.253Z,0.00
2023-01-29T00:25:13.220Z,0.00
2023-01-29T00:26:13.231Z,0.00
2023-01-29T00:27:13.192Z,0.00
2023-01-29T00:28:13.159Z,0.00
2023-01-29T00:29:13.237Z,0.00
2023-01-29T00:30:13.339Z,0.00
2023-01-29T00:31:13.465Z,0.00
2023-01-29T00:32:13.840Z,0.00
2023-01-29T00:33:14.760Z,0.00
2023-01-29T00:34:13.944Z,0.00
2023-01-29T00:35:12.882Z,0.00
2023-01-29T00:36:13.985Z,0.00
2023-01-29T00:37:12.883Z,0.00
2023-01-29T00:38:13.236Z,0.00
2023-01-29T00:39:13.554Z,0.00
2023-01-29T00:40:13.861Z,0.00
2023-01-29T00:41:12.873Z,0.00
2023-01-29T00:42:13.746Z,0.00
2023-01-29T00:43:13.899Z,0.00
2023-01-29T00:44:12.894Z,0.00
2023-01-29T00:45:12.889Z,0.00
2023-01-29T00:46:13.069Z,0.00
2023-01-29T00:47:13.073Z,0.00
2023-01-29T00:48:13.218Z,0.00
2023-01-29T00:49:13.115Z,0.00
2023-01-29T00:50:13.202Z,0.00
2023-01-29T00:51:13.522Z,0.00
2023-01-29T00:52:13.383Z,0.00
2023-01-29T00:53:13.909Z,0.00
2023-01-29T00:54:12.945Z,0.00
2023-01-29T00:55:12.848Z,0.00
2023-01-29T00:56:13.999Z,0.00
2023-01-29T00:57:12.948Z,0.00
2023-01-29T00:58:12.996Z,0.00
2023-01-29T00:59:13.038Z,0.00
2023-01-29T01:00:12.940Z,0.00
2023-01-29T01:01:13.304Z,0.00
2023-01-29T01:02:13.429Z,0.00
2023-01-29T01:03:13.578Z,0.00
2023-01-29T01:04:13.445Z,0.00
2023-01-29T01:05:13.456Z,0.00
2023-01-29T01:06:13.399Z,0.00
2023-01-29T01:07:13.369Z,0.00
2023-01-29T01:08:13.470Z,0.00
2023-01-29T01:09:13.489Z,0.00
2023-01-29T01:10:13.863Z,0.00
2023-01-29T01:11:13.190Z,0.00
2023-01-29T01:12:13.146Z,0.00
2023-01-29T01:13:12.996Z,0.00
2023-01-29T01:14:13.067Z,0.00
2023-01-29T01:15:12.993Z,0.00
2023-01-29T01:16:13.067Z,0.00
2023-01-29T01:17:13.111Z,0.00
2023-01-29T01:18:13.160Z,0.00
2023-01-29T01:19:13.078Z,0.00
2023-01-29T01:20:13.107Z,0.00
2023-01-29T01:21:13.169Z,0.00
2023-01-29T01:22:13.484Z,0.00
2023-01-29T01:23:13.464Z,0.00
2023-01-29T01:24:13.446Z,0.00
2023-01-29T01:25:13.602Z,0.00
2023-01-29T01:26:13.812Z,0.00
2023-01-29T01:27:13.728Z,0.00
2023-01-29T01:28:13.574Z,0.00
2023-01-29T01:29:13.491Z,0.00
2023-01-29T01:30:14.112Z,0.00
2023-01-29T01:31:13.782Z,0.00
2023-01-29T01:32:13.802Z,0.00
2023-01-29T01:33:14.180Z,0.00
2023-01-29T01:34:13.016Z,0.00
2023-01-29T01:35:13.113Z,0.00
2023-01-29T01:36:12.974Z,0.00
2023-01-29T01:37:12.968Z,0.00
2023-01-29T01:38:12.901Z,0.00
2023-01-29T01:39:12.911Z,0.00
2023-01-29T01:40:13.091Z,0.00
2023-01-29T01:41:13.359Z,0.00
2023-01-29T01:42:13.383Z,0.00
2023-01-29T01:43:13.425Z,0.00
2023-01-29T01:44:13.391Z,0.00
2023-01-29T01:45:13.537Z,0.00
2023-01-29T01:46:13.773Z,0.00
2023-01-29T01:47:13.927Z,0.00
2023-01-29T01:48:12.847Z,0.00
2023-01-29T01:49:14.048Z,0.00
2023-01-29T01:50:13.156Z,0.00
2023-01-29T01:51:13.343Z,0.00
2023-01-29T01:52:13.486Z,0.00
2023-01-29T01:53:13.366Z,0.00
2023-01-29T01:54:13.347Z,0.00
2023-01-29T01:55:13.414Z,0.00
2023-01-29T01:56:13.408Z,0.00
2023-01-29T01:57:13.457Z,0.00
2023-01-29T01:58:13.632Z,0.00
2023-01-29T01:59:14.038Z,0.00
2023-01-29T02:00:13.325Z,0.00
2023-01-29T02:01:13.538Z,0.00
2023-01-29T02:02:13.453Z,0.00
2023-01-29T02:03:13.502Z,0.00
2023-01-29T02:04:14.940Z,0.00
2023-01-29T02:05:12.913Z,0.00
2023-01-29T02:06:12.853Z,0.00
2023-01-29T02:07:13.805Z,0.00
2023-01-29T02:08:13.727Z,0.00
2023-01-29T02:09:13.747Z,0.00
2023-01-29T02:10:13.771Z,0.00
2023-01-29T02:11:14.085Z,0.00
2023-01-29T02:12:13.145Z,0.00
2023-01-29T02:13:13.357Z,0.00
2023-01-29T02:14:13.791Z,0.00
2023-01-29T02:15:13.771Z,0.00
2023-01-29T02:16:14.088Z,0.00
2023-01-29T02:17:13.104Z,0.00
2023-01-29T02:18:13.035Z,0.00
2023-01-29T02:19:13.305Z,0.00
2023-01-29T02:20:13.164Z,0.00
2023-01-29T02:21:13.157Z,0.00
2023-01-29T02:22:12.979Z,0.00
2023-01-29T02:23:13.113Z,0.00
2023-01-29T02:24:13.141Z,0.00
2023-01-29T02:25:14.366Z,0.00
2023-01-29T02:26:13.798Z,0.00
2023-01-29T02:27:14.082Z,0.00
2023-01-29T02:28:13.125Z,0.00
2023-01-29T02:29:13.259Z,0.00
2023-01-29T02:30:13.184Z,0.00
2023-01-29T02:31:13.312Z,0.00
2023-01-29T02:32:13.434Z,0.00
2023-01-29T02:33:13.383Z,0.00
2023-01-29T02:34:13.297Z,0.00
2023-01-29T02:35:13.336Z,0.00
2023-01-29T02:36:13.277Z,0.00
2023-01-29T02:37:13.278Z,0.00
2023-01-29T02:38:13.340Z,0.00
2023-01-29T02:39:13.276Z,0.00
2023-01-29T02:40:13.463Z,0.00
2023-01-29T02:41:13.499Z,0.00
2023-01-29T02:42:14.034Z,0.00
2023-01-29T02:43:12.990Z,0.00
2023-01-29T02:44:12.950Z,0.00
2023-01-29T02:45:13.011Z,0.00
2023-01-29T02:46:13.467Z,0.00
2023-01-29T02:47:13.995Z,0.00
2023-01-29T02:48:12.844Z,0.00
2023-01-29T02:49:13.716Z,0.00
2023-01-29T02:50:13.689Z,0.00
2023-01-29T02:51:13.973Z,0.00
2023-01-29T02:52:13.078Z,0.00
2023-01-29T02:53:13.012Z,0.00
2023-01-29T02:54:12.988Z,0.00
2023-01-29T02:55:12.878Z,0.00
2023-01-29T02:56:14.023Z,0.00
2023-01-29T02:57:13.122Z,0.00
2023-01-29T02:58:13.183Z,0.00
2023-01-29T02:59:13.139Z,0.00
2023-01-29T03:00:13.096Z,0.00
2023-01-29T03:01:13.149Z,0.00
2023-01-29T03:02:13.246Z,0.00
2023-01-29T03:03:13.247Z,0.00
2023-01-29T03:04:13.160Z,0.00
2023-01-29T03:05:13.093Z,0.00
2023-01-29T03:06:13.016Z,0.00
2023-01-29T03:07:13.157Z,0.00
2023-01-29T03:08:13.531Z,0.00
2023-01-29T03:09:13.449Z,0.00
2023-01-29T03:10:13.468Z,0.00
2023-01-29T03:11:13.663Z,0.00
2023-01-29T03:12:13.686Z,0.00
2023-01-29T03:13:14.021Z,0.00
2023-01-29T03:14:12.890Z,0.00
2023-01-29T03:15:13.069Z,0.00
2023-01-29T03:16:12.979Z,0.00
2023-01-29T03:17:12.987Z,0.00
2023-01-29T03:18:13.167Z,0.00
2023-01-29T03:19:13.033Z,0.00
2023-01-29T03:20:13.022Z,0.00
2023-01-29T03:21:12.972Z,0.00
2023-01-29T03:22:13.046Z,0.00
2023-01-29T03:23:12.946Z,0.00
2023-01-29T03:24:13.113Z,0.00
2023-01-29T03:25:13.049Z,0.00
2023-01-29T03:26:13.036Z,0.00
2023-01-29T03:27:13.381Z,0.00
2023-01-29T03:28:13.708Z,0.00
2023-01-29T03:29:13.947Z,0.00
2023-01-29T03:30:12.906Z,0.00
2023-01-29T03:31:12.981Z,0.00
2023-01-29T03:32:12.894Z,0.00
2023-01-29T03:33:12.989Z,0.00
2023-01-29T03:34:12.979Z,0.00
2023-01-29T03:35:12.928Z,0.00
2023-01-29T03:36:13.090Z,0.00
2023-01-29T03:37:13.044Z,0.00
2023-01-29T03:38:13.037Z,0.00
2023-01-29T03:39:13.322Z,0.00
2023-01-29T03:40:13.670Z,0.00
2023-01-29T03:41:13.774Z,0.00
2023-01-29T03:42:13.758Z,0.00
2023-01-29T03:43:13.634Z,0.00
2023-01-29T03:44:13.629Z,0.00
2023-01-29T03:45:14.798Z,0.00
2023-01-29T03:46:13.691Z,0.00
2023-01-29T03:47:13.825Z,0.00
2023-01-29T03:48:14.182Z,0.00
2023-01-29T03:49:13.107Z,0.00
2023-01-29T03:50:13.167Z,0.00
2023-01-29T03:51:13.493Z,0.00
2023-01-29T03:52:13.402Z,0.00
2023-01-29T03:53:13.776Z,0.00
2023-01-29T03:54:13.749Z,0.00
2023-01-29T03:55:13.721Z,0.00
2023-01-29T03:56:13.714Z,0.00
2023-01-29T03:57:13.804Z,0.00
2023-01-29T03:58:14.169Z,0.00
2023-01-29T03:59:13.397Z,0.00
2023-01-29T04:00:14.869Z,0.00
2023-01-29T04:01:13.511Z,0.00
2023-01-29T04:02:13.641Z,0.00
2023-01-29T04:03:13.678Z,0.00
2023-01-29T04:04:13.691Z,0.00
2023-01-29T04:05:13.682Z,0.00
2023-01-29T04:06:13.748Z,0.00
2023-01-29T04:07:13.691Z,0.00
2023-01-29T04:08:13.703Z,0.00
2023-01-29T04:09:13.812Z,0.00
2023-01-29T04:10:14.028Z,0.00
2023-01-29T04:11:13.301Z,0.00
2023-01-29T04:12:13.217Z,0.00
2023-01-29T04:13:13.127Z,0.00
2023-01-29T04:14:12.992Z,0.00
2023-01-29T04:15:12.863Z,0.00
2023-01-29T04:16:13.958Z,0.00
2023-01-29T04:17:13.142Z,0.00
2023-01-29T04:18:13.050Z,0.00
2023-01-29T04:19:13.055Z,0.00
2023-01-29T04:20:13.392Z,0.00
2023-01-29T04:21:13.428Z,0.00
2023-01-29T04:22:13.308Z,0.00
2023-01-29T04:23:13.293Z,0.00
2023-01-29T04:24:13.253Z,0.00
2023-01-29T04:25:13.802Z,0.00
2023-01-29T04:26:14.101Z,0.00
2023-01-29T04:27:13.353Z,0.00
2023-01-29T04:28:13.299Z,0.00
2023-01-29T04:29:13.541Z,0.00
2023-01-29T04:30:13.791Z,0.00
2023-01-29T04:31:14.233Z,0.00
2023-01-29T04:32:13.222Z,0.00
2023-01-29T04:33:18.079Z,0.00
2023-01-29T04:34:13.124Z,0.00
2023-01-29T04:35:13.242Z,0.00
2023-01-29T04:36:13.524Z,0.00
2023-01-29T04:37:13.681Z,0.00
2023-01-29T04:38:13.659Z,0.00
2023-01-29T04:39:13.542Z,0.00
2023-01-29T04:40:13.578Z,0.00
2023-01-29T04:41:13.679Z,0.00
2023-01-29T04:42:13.945Z,0.00
2023-01-29T04:43:13.142Z,0.00
2023-01-29T04:44:13.688Z,0.00
2023-01-29T04:45:13.785Z,0.00
2023-01-29T04:46:14.346Z,0.00
2023-01-29T04:47:13.544Z,0.00
2023-01-29T04:48:13.733Z,0.00
2023-01-29T04:49:18.608Z,0.00
2023-01-29T04:50:14.026Z,0.00
2023-01-29T04:51:13.155Z,0.00
2023-01-29T04:52:13.477Z,0.00
2023-01-29T04:53:13.481Z,0.00
2023-01-29T04:54:13.690Z,0.00
2023-01-29T04:55:13.983Z,0.00
2023-01-29T04:56:13.253Z,0.00
2023-01-29T04:57:13.192Z,0.00
2023-01-29T04:58:13.233Z,0.00
2023-01-29T04:59:13.181Z,0.00
2023-01-29T05:00:13.453Z,0.00
2023-01-29T05:01:13.943Z,0.00
2023-01-29T05:02:13.888Z,0.00
2023-01-29T05:03:12.789Z,0.00
2023-01-29T05:04:14.228Z,0.00
2023-01-29T05:05:13.415Z,0.00
2023-01-29T05:06:13.493Z,0.00
2023-01-29T05:07:13.405Z,0.00
2023-01-29T05:08:13.294Z,0.00
2023-01-29T05:09:13.508Z,0.00
2023-01-29T05:10:13.542Z,0.00
2023-01-29T05:11:13.668Z,0.00
2023-01-29T05:12:13.710Z,0.00
2023-01-29T05:13:13.655Z,0.00
2023-01-29T05:14:13.692Z,0.00
2023-01-29T05:15:13.710Z,0.00
2023-01-29T05:16:13.970Z,0.00
2023-01-29T05:17:13.229Z,0.00
2023-01-29T05:18:13.503Z,0.00
2023-01-29T05:19:13.722Z,0.00
2023-01-29T05:20:14.266Z,0.00
2023-01-29T05:21:13.373Z,0.00
2023-01-29T05:22:13.507Z,0.00
2023-01-29T05:23:13.454Z,0.00
2023-01-29T05:24:13.505Z,0.00
2023-01-29T05:25:13.635Z,0.00
2023-01-29T05:26:13.691Z,0.00
2023-01-29T05:27:14.060Z,0.00
2023-01-29T05:28:12.899Z,0.00
2023-01-29T05:29:12.734Z,0.00
2023-01-29T05:30:14.052Z,0.00
2023-01-29T05:31:13.582Z,0.00
2023-01-29T05:32:13.572Z,0.00
2023-01-29T05:33:13.743Z,0.00
2023-01-29T05:34:13.656Z,0.00
2023-01-29T05:35:13.726Z,0.00
2023-01-29T05:36:13.763Z,0.00
2023-01-29T05:37:13.797Z,0.00
2023-01-29T05:38:13.651Z,0.00
2023-01-29T05:39:13.661Z,0.00
2023-01-29T05:40:13.730Z,0.00
2023-01-29T05:41:13.852Z,0.00
2023-01-29T05:42:13.806Z,0.00
2023-01-29T05:43:13.830Z,0.00
2023-01-29T05:44:13.828Z,0.00
2023-01-29T05:45:13.936Z,0.00
2023-01-29T05:46:12.951Z,0.00
2023-01-29T05:47:13.245Z,0.00
2023-01-29T05:48:13.293Z,0.00
2023-01-29T05:49:13.196Z,0.00
2023-01-29T05:50:13.400Z,0.00
2023-01-29T05:51:13.395Z,0.00
2023-01-29T05:52:13.751Z,0.00
2023-01-29T05:53:13.771Z,0.00
2023-01-29T05:54:13.779Z,0.00
2023-01-29T05:55:13.751Z,0.00
2023-01-29T05:56:13.751Z,0.00
2023-01-29T05:57:15.489Z,0.00
2023-01-29T05:58:13.394Z,0.00
2023-01-29T05:59:13.767Z,0.00
2023-01-29T06:00:14.214Z,0.00
2023-01-29T06:01:13.556Z,0.00
2023-01-29T06:02:13.630Z,0.00
2023-01-29T06:03:13.873Z,0.00
2023-01-29T06:04:13.228Z,0.00
2023-01-29T06:05:13.398Z,0.00
2023-01-29T06:06:13.672Z,0.00
2023-01-29T06:07:13.669Z,0.00
2023-01-29T06:08:14.797Z,0.00
2023-01-29T06:09:14.074Z,0.00
2023-01-29T06:10:13.216Z,0.00
2023-01-29T06:11:13.097Z,0.00
2023-01-29T06:12:12.908Z,0.00
2023-01-29T06:13:12.939Z,0.00
2023-01-29T06:14:14.107Z,0.00
2023-01-29T06:15:13.085Z,0.00
2023-01-29T06:16:13.279Z,0.00
2023-01-29T06:17:13.383Z,0.00
2023-01-29T06:18:13.592Z,0.00
2023-01-29T06:19:14.746Z,0.00
2023-01-29T06:20:13.898Z,0.00
2023-01-29T06:21:13.060Z,0.00
2023-01-29T06:22:13.097Z,0.00
2023-01-29T06:23:13.405Z,0.00
2023-01-29T06:24:13.519Z,0.00
2023-01-29T06:25:15.855Z,0.00
2023-01-29T06:26:13.739Z,0.00
2023-01-29T06:27:13.722Z,0.00
2023-01-29T06:28:13.640Z,0.00
2023-01-29T06:29:13.472Z,0.00
2023-01-29T06:30:13.463Z,0.00
2023-01-29T06:31:33.151Z,0.00
2023-01-29T06:32:13.660Z,0.00
2023-01-29T06:33:13.905Z,0.00
2023-01-29T06:34:13.096Z,0.00
2023-01-29T06:35:13.069Z,0.00
2023-01-29T06:36:13.223Z,0.77
2023-01-29T06:37:13.553Z,0.77
2023-01-29T06:38:13.623Z,0.77
2023-01-29T06:39:13.831Z,0.77
2023-01-29T06:40:14.291Z,1.53
2023-01-29T06:41:13.502Z,1.53
2023-01-29T06:42:13.920Z,1.53
2023-01-29T06:43:12.878Z,2.29
2023-01-29T06:44:13.817Z,2.29
2023-01-29T06:45:13.712Z,3.06
2023-01-29T06:46:13.620Z,3.06
2023-01-29T06:47:13.574Z,3.82
2023-01-29T06:48:13.477Z,5.35
2023-01-29T06:49:13.780Z,6.12
2023-01-29T06:50:13.956Z,6.88
2023-01-29T06:51:13.253Z,9.18
2023-01-29T06:52:13.462Z,10.71
2023-01-29T06:53:13.422Z,12.24
2023-01-29T06:54:13.494Z,15.30
2023-01-29T06:55:13.695Z,18.36
2023-01-29T06:56:14.966Z,22.95
2023-01-29T06:57:13.021Z,24.48
2023-01-29T06:58:12.992Z,30.60
2023-01-29T06:59:13.007Z,33.66
2023-01-29T07:00:12.964Z,36.72
2023-01-29T07:01:25.427Z,42.84
2023-01-29T07:02:13.506Z,45.90
2023-01-29T07:03:13.806Z,48.96
2023-01-29T07:04:13.735Z,61.20
2023-01-29T07:05:13.684Z,67.32
2023-01-29T07:06:13.912Z,73.44
2023-01-29T07:07:13.138Z,79.56
2023-01-29T07:08:13.177Z,91.80
2023-01-29T07:09:13.706Z,97.92
2023-01-29T07:10:13.666Z,110.16
2023-01-29T07:11:14.063Z,122.40
2023-01-29T07:12:13.008Z,134.64
2023-01-29T07:13:13.284Z,146.88
2023-01-29T07:14:13.331Z,171.36
2023-01-29T07:15:13.373Z,171.36
2023-01-29T07:16:13.483Z,195.84
2023-01-29T07:17:13.559Z,220.32
2023-01-29T07:18:13.531Z,244.80
2023-01-29T07:19:13.745Z,269.28
2023-01-29T07:20:14.016Z,269.28
2023-01-29T07:21:13.454Z,269.28
2023-01-29T07:22:13.287Z,293.76
2023-01-29T07:23:13.205Z,318.24
2023-01-29T07:24:13.141Z,342.72
2023-01-29T07:25:13.289Z,367.20
2023-01-29T07:26:13.259Z,391.68
2023-01-29T07:27:13.162Z,391.68
2023-01-29T07:28:13.071Z,440.64
2023-01-29T07:29:12.962Z,440.64
2023-01-29T07:30:12.852Z,489.60
2023-01-29T07:31:14.069Z,489.60
2023-01-29T07:32:13.144Z,489.60
2023-01-29T07:33:13.232Z,538.56
2023-01-29T07:34:13.293Z,587.52
2023-01-29T07:35:13.393Z,636.48
2023-01-29T07:36:13.330Z,685.44
2023-01-29T07:37:13.320Z,685.44
2023-01-29T07:38:13.179Z,685.44
2023-01-29T07:39:13.192Z,685.44
2023-01-29T07:40:35.394Z,685.44
2023-01-29T07:41:13.444Z,734.40
2023-01-29T07:42:13.517Z,734.40
2023-01-29T07:43:13.840Z,783.36
2023-01-29T07:44:14.087Z,783.36
2023-01-29T07:45:13.187Z,881.28
2023-01-29T07:46:13.329Z,881.28
2023-01-29T07:47:13.955Z,881.28
2023-01-29T07:48:13.831Z,979.20
2023-01-29T07:49:13.939Z,979.20
2023-01-29T07:50:12.794Z,979.20
2023-01-29T07:51:13.886Z,1077.12
2023-01-29T07:52:13.872Z,1077.12
2023-01-29T07:53:13.794Z,1175.04
2023-01-29T07:54:13.662Z,1077.12
2023-01-29T07:55:13.660Z,1077.12
2023-01-29T07:56:13.481Z,1077.12
2023-01-29T07:57:13.372Z,1077.12
2023-01-29T07:58:13.292Z,979.20
2023-01-29T07:59:13.172Z,1077.12
2023-01-29T08:00:13.011Z,1077.12
2023-01-29T08:01:13.145Z,1077.12
2023-01-29T08:02:13.157Z,1077.12
2023-01-29T08:03:13.297Z,1175.04
2023-01-29T08:04:13.572Z,1175.04
2023-01-29T08:05:13.560Z,1175.04
2023-01-29T08:06:13.505Z,1175.04
2023-01-29T08:07:13.468Z,1175.04
2023-01-29T08:08:13.355Z,1077.12
2023-01-29T08:09:13.579Z,1175.04
2023-01-29T08:10:13.654Z,1175.04
2023-01-29T08:11:14.009Z,1175.04
2023-01-29T08:12:13.064Z,1175.04
2023-01-29T08:13:13.073Z,1272.96
2023-01-29T08:14:13.260Z,1272.96
2023-01-29T08:15:13.132Z,1272.96
2023-01-29T08:16:13.260Z,1370.88
2023-01-29T08:17:13.107Z,1370.88
2023-01-29T08:18:13.165Z,1370.88
2023-01-29T08:19:13.073Z,1468.80
2023-01-29T08:20:13.241Z,1468.80
2023-01-29T08:21:13.992Z,1468.80
2023-01-29T08:22:13.303Z,1468.80
2023-01-29T08:23:13.701Z,1468.80
2023-01-29T08:24:13.813Z,1468.80
2023-01-29T08:25:13.765Z,1468.80
2023-01-29T08:26:13.590Z,1566.72
2023-01-29T08:27:14.607Z,1566.72
2023-01-29T08:28:13.776Z,1566.72
2023-01-29T08:29:13.801Z,1566.72
2023-01-29T08:30:13.645Z,1566.72
2023-01-29T08:31:13.975Z,1566.72
2023-01-29T08:32:12.944Z,1566.72
2023-01-29T08:33:12.896Z,1468.80
2023-01-29T08:34:13.742Z,1468.80
2023-01-29T08:35:13.943Z,1370.88
2023-01-29T08:36:12.826Z,1468.80
2023-01-29T08:37:13.964Z,1370.88
2023-01-29T08:38:12.919Z,1370.88
2023-01-29T08:39:12.829Z,1370.88
2023-01-29T08:40:14.038Z,1468.80
2023-01-29T08:41:13.368Z,1370.88
2023-01-29T08:42:13.413Z,1468.80
2023-01-29T08:43:13.394Z,1468.80
2023-01-29T08:44:13.645Z,1566.72
2023-01-29T08:45:13.647Z,1566.72
2023-01-29T08:46:13.578Z,1566.72
2023-01-29T08:47:13.776Z,1566.72
2023-01-29T08:48:13.727Z,1566.72
2023-01-29T08:49:14.057Z,1566.72
2023-01-29T08:50:12.950Z,1566.72
2023-01-29T08:51:12.916Z,1566.72
2023-01-29T08:52:13.382Z,1762.56
2023-01-29T08:53:13.715Z,1958.40
2023-01-29T08:54:13.945Z,2154.24
2023-01-29T08:55:12.883Z,2545.92
2023-01-29T08:56:13.929Z,2545.92
2023-01-29T08:57:12.858Z,2741.76
2023-01-29T08:58:13.913Z,3133.44
2023-01-29T08:59:13.155Z,3525.12
2023-01-29T09:00:13.092Z,3525.12
2023-01-29T09:01:13.045Z,3916.80
2023-01-29T09:02:13.200Z,3916.80
2023-01-29T09:03:14.280Z,4308.48
2023-01-29T09:04:13.170Z,4308.48
2023-01-29T09:05:13.900Z,4700.16
2023-01-29T09:06:12.893Z,4700.16
2023-01-29T09:07:12.950Z,4700.16
2023-01-29T09:08:14.070Z,4308.48
2023-01-29T09:09:13.122Z,3916.80
2023-01-29T09:10:13.344Z,4700.16
2023-01-29T09:11:13.201Z,4700.16
2023-01-29T09:12:13.353Z,4308.48
2023-01-29T09:13:13.326Z,4700.16
2023-01-29T09:14:13.400Z,4308.48
2023-01-29T09:15:13.396Z,4700.16
2023-01-29T09:16:13.309Z,4308.48
2023-01-29T09:17:13.627Z,4308.48
2023-01-29T09:18:13.710Z,5091.84
2023-01-29T09:19:13.845Z,5091.84
2023-01-29T09:20:13.741Z,5091.84
2023-01-29T09:21:13.741Z,5483.52
2023-01-29T09:22:13.690Z,5483.52
2023-01-29T09:23:13.951Z,5483.52
2023-01-29T09:24:12.929Z,5483.52
2023-01-29T09:25:12.804Z,5875.20
2023-01-29T09:26:13.875Z,5875.20
2023-01-29T09:27:13.176Z,5875.20
2023-01-29T09:28:13.099Z,6266.88
2023-01-29T09:29:12.944Z,6266.88
2023-01-29T09:30:12.979Z,7050.24
2023-01-29T09:31:13.128Z,7050.24
2023-01-29T09:32:13.144Z,7833.60
2023-01-29T09:33:13.320Z,7833.60
2023-01-29T09:34:13.429Z,7833.60
2023-01-29T09:35:13.422Z,7833.60
2023-01-29T09:36:13.496Z,7833.60
2023-01-29T09:37:13.833Z,7833.60
2023-01-29T09:39:04.119Z,7833.60
2023-01-29T09:39:15.431Z,7833.60
2023-01-29T09:40:13.474Z,8616.96
2023-01-29T09:41:59.690Z,8616.96
2023-01-29T09:42:13.719Z,8616.96
2023-01-29T09:43:14.138Z,9400.32
2023-01-29T09:44:13.328Z,9400.32
2023-01-29T09:45:13.496Z,10183.68
2023-01-29T09:46:13.932Z,10183.68
2023-01-29T09:47:12.999Z,10183.68
2023-01-29T09:48:12.874Z,9400.32
2023-01-29T09:49:48.321Z,7833.60
2023-01-29T09:50:13.287Z,7050.24
2023-01-29T09:51:13.822Z,7833.60
2023-01-29T09:52:14.077Z,7050.24
2023-01-29T09:53:13.110Z,6266.88
2023-01-29T09:54:13.278Z,5875.20
2023-01-29T09:55:13.395Z,5483.52
2023-01-29T09:56:13.517Z,5091.84
2023-01-29T09:57:13.620Z,5091.84
2023-01-29T09:58:13.831Z,5091.84
2023-01-29T09:59:14.139Z,4700.16
2023-01-29T10:00:13.190Z,4700.16
2023-01-29T10:01:13.451Z,4700.16
2023-01-29T10:02:13.660Z,4308.48
2023-01-29T10:03:13.817Z,4308.48
2023-01-29T10:04:13.953Z,4308.48
2023-01-29T10:05:13.118Z,3916.80
2023-01-29T10:06:13.183Z,3916.80
2023-01-29T10:07:13.182Z,3525.12
2023-01-29T10:08:13.098Z,3525.12
2023-01-29T10:09:13.008Z,3133.44
2023-01-29T10:10:31.352Z,3525.12
2023-01-29T10:11:13.576Z,3525.12
2023-01-29T10:12:13.414Z,3133.44
2023-01-29T10:13:22.519Z,3525.12
2023-01-29T10:14:13.855Z,3916.80
2023-01-29T10:15:14.105Z,4308.48
2023-01-29T10:16:47.571Z,4308.48
2023-01-29T10:17:13.869Z,4308.48
2023-01-29T10:18:13.447Z,4700.16
2023-01-29T10:19:13.532Z,5091.84
2023-01-29T10:20:18.557Z,5091.84
2023-01-29T10:21:13.850Z,5483.52
2023-01-29T10:22:14.368Z,5483.52
2023-01-29T10:23:13.620Z,5875.20
2023-01-29T10:24:14.071Z,5875.20
2023-01-29T10:25:13.417Z,6266.88
2023-01-29T10:26:13.828Z,6266.88
2023-01-29T10:27:18.884Z,6266.88
2023-01-29T10:28:13.259Z,6266.88
2023-01-29T10:29:53.011Z,7050.24
2023-01-29T10:30:13.878Z,7050.24
2023-01-29T10:31:12.956Z,6266.88
2023-01-29T10:32:12.941Z,6266.88
2023-01-29T10:33:13.113Z,7050.24
2023-01-29T10:34:18.236Z,7050.24
2023-01-29T10:35:52.062Z,7050.24
2023-01-29T10:36:13.269Z,7050.24
2023-01-29T10:37:13.344Z,6266.88
2023-01-29T10:38:13.958Z,7050.24
2023-01-29T10:39:13.339Z,6266.88
2023-01-29T10:40:13.408Z,7050.24
2023-01-29T10:41:13.564Z,7050.24
2023-01-29T10:42:13.618Z,7050.24
2023-01-29T10:43:46.102Z,7050.24
2023-01-29T10:44:13.158Z,7050.24
2023-01-29T10:45:13.473Z,7050.24
2023-01-29T10:46:13.540Z,7050.24
2023-01-29T10:47:14.111Z,6266.88
2023-01-29T10:48:13.442Z,6266.88
2023-01-29T10:49:13.522Z,5875.20
2023-01-29T10:50:26.954Z,5091.84
2023-01-29T10:51:13.039Z,5483.52
2023-01-29T10:52:13.179Z,5875.20
2023-01-29T10:53:38.972Z,6266.88
2023-01-29T10:54:13.616Z,7050.24
2023-01-29T10:55:13.830Z,7050.24
2023-01-29T10:56:22.402Z,7050.24
2023-01-29T10:57:13.148Z,7050.24
2023-01-29T10:58:13.134Z,7050.24
2023-01-29T10:59:13.298Z,7050.24
2023-01-29T11:00:13.300Z,7050.24
2023-01-29T11:01:13.860Z,7833.60
2023-01-29T11:02:12.813Z,7833.60
2023-01-29T11:03:26.399Z,7833.60
2023-01-29T11:04:14.032Z,7833.60
2023-01-29T11:05:13.055Z,7833.60
2023-01-29T11:06:13.164Z,7050.24
2023-01-29T11:07:13.155Z,7833.60
2023-01-29T11:08:13.399Z,7833.60
2023-01-29T11:09:13.395Z,7833.60
2023-01-29T11:10:13.614Z,7833.60
2023-01-29T11:11:13.685Z,7833.60
2023-01-29T11:12:13.694Z,8616.96
2023-01-29T11:13:13.632Z,8616.96
2023-01-29T11:14:13.595Z,8616.96
2023-01-29T11:15:13.708Z,8616.96
2023-01-29T11:16:13.844Z,8616.96
2023-01-29T11:17:13.878Z,7833.60
2023-01-29T11:18:13.258Z,7050.24
2023-01-29T11:19:13.956Z,5875.20
2023-01-29T11:20:12.899Z,4700.16
2023-01-29T11:21:13.568Z,3916.80
2023-01-29T11:22:13.619Z,4308.48
2023-01-29T11:23:13.913Z,5091.84
2023-01-29T11:24:13.019Z,5483.52
2023-01-29T11:25:12.984Z,6266.88
2023-01-29T11:26:13.108Z,6266.88
2023-01-29T11:27:14.412Z,6266.88
2023-01-29T11:28:13.558Z,6266.88
2023-01-29T11:29:13.956Z,6266.88
2023-01-29T11:30:12.915Z,6266.88
2023-01-29T11:31:14.463Z,6266.88
2023-01-29T11:32:14.856Z,6266.88
2023-01-29T11:33:14.794Z,5875.20
2023-01-29T11:34:14.061Z,5875.20
2023-01-29T11:35:13.754Z,5875.20
2023-01-29T11:36:13.674Z,6266.88
2023-01-29T11:37:13.719Z,6266.88
2023-01-29T11:38:13.720Z,6266.88
2023-01-29T11:39:13.660Z,6266.88
2023-01-29T11:40:13.733Z,6266.88
2023-01-29T11:41:13.805Z,6266.88
2023-01-29T11:42:15.062Z,7050.24
2023-01-29T11:43:13.138Z,7050.24
2023-01-29T11:44:13.308Z,7050.24
2023-01-29T11:45:13.499Z,7050.24
2023-01-29T11:46:13.468Z,7050.24
2023-01-29T11:47:13.427Z,7050.24
2023-01-29T11:48:13.436Z,7050.24
2023-01-29T11:49:20.485Z,7050.24
2023-01-29T11:50:13.697Z,7050.24
2023-01-29T11:51:13.714Z,7050.24
2023-01-29T11:52:13.650Z,7050.24
2023-01-29T11:53:13.538Z,7050.24
2023-01-29T11:54:13.925Z,7050.24
2023-01-29T11:55:12.880Z,7050.24
2023-01-29T11:56:14.213Z,7050.24
2023-01-29T11:57:13.334Z,7050.24
2023-01-29T11:58:13.262Z,7050.24
2023-01-29T11:59:13.481Z,7050.24
2023-01-29T12:00:13.556Z,7050.24
2023-01-29T12:01:13.424Z,7050.24
2023-01-29T12:02:13.267Z,7050.24
2023-01-29T12:03:13.229Z,7050.24
2023-01-29T12:04:13.144Z,7050.24
2023-01-29T12:05:13.236Z,7050.24
2023-01-29T12:06:13.359Z,7833.60
2023-01-29T12:07:13.325Z,7050.24
2023-01-29T12:08:13.824Z,7050.24
2023-01-29T12:09:15.958Z,7050.24
2023-01-29T12:10:13.813Z,7050.24
2023-01-29T12:11:14.180Z,6266.88
2023-01-29T12:12:13.583Z,6266.88
2023-01-29T12:13:14.200Z,6266.88
2023-01-29T12:14:13.348Z,6266.88
2023-01-29T12:15:13.553Z,6266.88
2023-01-29T12:16:13.583Z,6266.88
2023-01-29T12:17:13.564Z,6266.88
2023-01-29T12:18:13.643Z,6266.88
2023-01-29T12:19:13.698Z,6266.88
2023-01-29T12:20:13.652Z,6266.88
2023-01-29T12:21:13.696Z,6266.88
2023-01-29T12:22:13.909Z,6266.88
2023-01-29T12:23:13.341Z,7050.24
2023-01-29T12:24:18.381Z,7050.24
2023-01-29T12:25:14.256Z,7050.24
2023-01-29T12:26:13.542Z,7050.24
2023-01-29T12:27:14.643Z,7050.24
2023-01-29T12:28:13.677Z,7050.24
2023-01-29T12:29:13.645Z,7050.24
2023-01-29T12:30:14.694Z,7050.24
2023-01-29T12:31:13.126Z,6266.88
2023-01-29T12:32:13.119Z,6266.88
2023-01-29T12:33:13.338Z,6266.88
2023-01-29T12:34:13.759Z,6266.88
2023-01-29T12:35:14.180Z,7050.24
2023-01-29T12:36:14.208Z,7050.24
2023-01-29T12:37:13.339Z,7050.24
2023-01-29T12:38:13.411Z,6266.88
2023-01-29T12:39:13.544Z,6266.88
2023-01-29T12:40:13.428Z,6266.88
2023-01-29T12:41:13.833Z,6266.88
2023-01-29T12:42:14.132Z,6266.88
2023-01-29T12:43:13.159Z,6266.88
2023-01-29T12:44:13.294Z,7050.24
2023-01-29T12:45:13.473Z,7050.24